Huvudsida
METAR-TAF:

METAR-TAF

Flygplatser :

Berlevågs flygplats

Berlevågs, Norge

latitud: 70-52N, longitud: 029-02E, höjd: 1 m

Aktuellt väderrapport

Denna rapport gjordes för 24 minuter sedan, klockan 05:50 UTC
Vind 13 kt från sydväst
Temperatur 7°C
Fuktighet 81%
Tryck 1011 hPa
Sikt 10 km eller mer
Få moln på en höjd av 1500 ft
Spridda moln på en höjd av 3500 ft
Brutna moln på en höjd av 4500 ft

METAR: ENBV 160550Z 23013KT 9999 FEW015 SCT035 BKN045 07/04 Q1011

Tid: 07:14 (06:14 UTC)

Väderprognos

Denna rapport gjordes för 13 timmar och 14 minuter sedan, klockan 17:00 UTC
Prognos gäller från 15 kl. 18 UTC till 15 kl. 22 UTC
Vind 18 kt från syd
Sikt 10 km eller mer
Få moln på en höjd av 2000 ft
Brutna moln på en höjd av 4000 ft

TAF: ENBV 151700Z 1518/1522 19018KT 9999 FEW020 BKN040

Aktuella väderrapporter och prognoser från 4000 flygplatser (METAR- och TAF-rapporter).

De tillgängliga stationerna syns som gula och röda prickar på kartan.

För musen över prickarna för att se namnen på stationerna.

Klicka sedan för att få väderrapporter och prognoser.

För att ändra kartan: Klicka på de gröna knapparna med ett svart kors på för att zooma in; den gröna knappen med ett streck på för att zooma ut; eller på de gröna pilarna för angränsande kartor.


METAR-TAF: